Time;durP1;ratioP1;P1;durP2;ratioP2;P2;SDS_P1;SDS_P2;PMS_P1;PMS_P2;Temp;Humidity;BMP_temperature;BMP_pressure;BME280_temperature;BME280_humidity;BME280_pressure;Samples;Min_cycle;Max_cycle;Signal;HPM_P1;HPM_P2
2022/06/13 00:01:10;;;;;;;26.55;11.30;;;10.60;99.90;;;;;;5074154;28;20098;-24
2022/06/13 00:03:37;;;;;;;24.20;11.63;;;10.60;99.90;;;;;;5072897;28;20482;-24
2022/06/13 00:06:02;;;;;;;24.40;11.43;;;10.50;99.90;;;;;;5073863;28;20045;-24
2022/06/13 00:08:28;;;;;;;23.65;11.65;;;10.50;99.90;;;;;;5073764;28;20114;-24
2022/06/13 00:10:54;;;;;;;23.58;9.35;;;10.50;99.90;;;;;;5072609;28;20048;-24
2022/06/13 00:13:19;;;;;;;23.10;10.50;;;10.40;99.90;;;;;;5072514;28;20389;-24
2022/06/13 00:15:45;;;;;;;25.98;10.02;;;10.50;99.90;;;;;;5073779;28;20051;-24
2022/06/13 00:18:11;;;;;;;29.50;9.65;;;10.40;1.00;;;;;;5073732;28;20101;-24
2022/06/13 00:20:36;;;;;;;21.73;9.05;;;10.40;1.00;;;;;;5073848;28;20045;-24
2022/06/13 00:23:02;;;;;;;23.42;9.45;;;10.40;1.00;;;;;;5056140;28;20108;-24
2022/06/13 00:25:28;;;;;;;18.75;9.02;;;10.40;1.00;;;;;;5073207;28;20045;-24
2022/06/13 00:27:54;;;;;;;24.63;10.40;;;10.40;1.00;;;;;;5073585;28;20075;-24
2022/06/13 00:30:20;;;;;;;16.73;8.50;;;10.40;1.00;;;;;;5074415;28;20044;-24
2022/06/13 00:32:46;;;;;;;20.90;8.63;;;10.40;1.00;;;;;;5039008;28;20063;-24
2022/06/13 00:35:11;;;;;;;21.20;8.55;;;10.40;1.00;;;;;;5073842;28;20040;-24
2022/06/13 00:37:37;;;;;;;21.58;8.95;;;10.50;1.00;;;;;;5073794;28;20045;-24
2022/06/13 00:40:04;;;;;;;21.48;8.95;;;10.40;1.00;;;;;;5073488;28;20040;-24
2022/06/13 00:42:30;;;;;;;18.67;8.90;;;10.60;1.00;;;;;;5073297;28;20458;-24
2022/06/13 00:45:17;;;;;;;21.27;8.57;;;10.70;13.00;;;;;;5077421;28;20076;-24
2022/06/13 00:47:45;;;;;;;23.52;8.30;;;10.70;74.30;;;;;;5077570;28;20044;-24
2022/06/13 00:50:30;;;;;;;22.15;8.52;;;10.80;44.60;;;;;;5077762;28;20041;-24
2022/06/13 00:53:02;;;;;;;18.30;8.02;;;10.90;59.00;;;;;;5077505;28;20544;-24
2022/06/13 00:55:43;;;;;;;19.15;7.45;;;10.90;48.40;;;;;;5077457;28;20083;-24
2022/06/13 00:58:11;;;;;;;16.20;8.77;;;10.90;87.80;;;;;;5077944;28;20052;-24
2022/06/13 01:00:37;;;;;;;19.30;8.30;;;11.00;84.50;;;;;;5059202;28;20040;-24
2022/06/13 01:03:05;;;;;;;23.40;8.63;;;11.00;75.30;;;;;;5077661;28;20186;-24
2022/06/13 01:05:34;;;;;;;16.52;7.88;;;11.10;85.40;;;;;;5076536;28;20044;-24
2022/06/13 01:08:03;;;;;;;18.45;7.40;;;11.10;97.30;;;;;;5077119;28;20113;-24
2022/06/13 01:13:15;;;;;;;28.75;9.05;;;11.20;99.90;;;;;;5077102;28;20095;-23
2022/06/13 01:15:58;;;;;;;21.60;7.90;;;11.20;99.90;;;;;;5076992;28;20048;-24
2022/06/13 01:18:35;;;;;;;19.52;8.90;;;11.30;99.90;;;;;;5077604;28;20139;-24
2022/06/13 01:21:07;;;;;;;20.23;9.05;;;11.30;99.90;;;;;;5076726;28;20060;-24
2022/06/13 01:24:17;;;;;;;27.00;9.68;;;11.40;99.90;;;;;;5077727;28;20052;-24
2022/06/13 01:27:04;;;;;;;16.63;7.82;;;11.40;99.90;;;;;;5076722;28;20106;-24
2022/06/13 01:29:54;;;;;;;15.18;7.57;;;11.60;99.90;;;;;;5075784;28;20106;-24
2022/06/13 01:32:51;;;;;;;26.73;9.05;;;11.60;99.90;;;;;;5076702;28;20052;-24
2022/06/13 01:35:54;;;;;;;17.95;8.75;;;11.70;99.90;;;;;;5059279;28;20063;-24
2022/06/13 01:38:45;;;;;;;23.30;7.93;;;11.90;99.90;;;;;;5075928;28;20562;-24
2022/06/13 01:41:24;;;;;;;22.50;8.35;;;11.90;99.90;;;;;;5059578;28;20040;-24
2022/06/13 01:43:50;;;;;;;22.80;8.10;;;11.90;99.90;;;;;;5076554;28;20052;-24
2022/06/13 01:46:27;;;;;;;30.45;9.93;;;11.90;99.90;;;;;;5076500;28;20048;-24
2022/06/13 01:49:15;;;;;;;22.73;9.18;;;11.90;99.90;;;;;;5077552;28;20138;-24
2022/06/13 01:52:11;;;;;;;23.77;9.38;;;11.80;99.90;;;;;;5076366;28;20041;-24
2022/06/13 01:54:48;;;;;;;19.02;8.82;;;11.80;99.90;;;;;;5066970;28;20465;-24
2022/06/13 01:57:36;;;;;;;20.70;9.45;;;11.70;99.90;;;;;;5077173;28;20040;-24
2022/06/13 02:00:12;;;;;;;16.70;8.30;;;11.60;99.90;;;;;;5076166;28;20044;-24
2022/06/13 02:02:54;;;;;;;28.63;9.00;;;11.60;99.90;;;;;;5075829;28;20048;-24
2022/06/13 02:05:49;;;;;;;20.92;9.27;;;11.60;99.90;;;;;;5076765;28;20067;-24
2022/06/13 02:08:27;;;;;;;21.13;9.48;;;11.60;99.90;;;;;;5076534;28;20044;-24
2022/06/13 02:11:18;;;;;;;20.30;9.30;;;11.70;99.90;;;;;;5076050;28;20068;-24
2022/06/13 02:14:01;;;;;;;21.30;8.30;;;11.70;99.90;;;;;;5075312;28;20052;-24
2022/06/13 02:16:51;;;;;;;18.75;7.88;;;11.80;99.90;;;;;;5075270;28;20487;-24
2022/06/13 02:19:24;;;;;;;23.38;7.93;;;11.90;99.90;;;;;;5074410;28;20067;-24
2022/06/13 02:21:59;;;;;;;24.83;7.57;;;12.00;99.90;;;;;;5076003;28;20394;-24
2022/06/13 02:24:35;;;;;;;17.33;7.13;;;12.10;99.90;;;;;;5074557;28;20145;-24
2022/06/13 02:27:03;;;;;;;22.67;7.88;;;12.20;99.90;;;;;;5075732;28;20045;-24
2022/06/13 02:29:42;;;;;;;20.27;9.05;;;12.20;99.90;;;;;;5074652;28;20044;-24
2022/06/13 02:32:10;;;;;;;23.90;6.70;;;12.30;34.50;;;;;;5075637;28;20482;-24
2022/06/13 02:34:45;;;;;;;14.57;6.45;;;12.30;1.00;;;;;;5057659;28;20074;-24
2022/06/13 02:37:17;;;;;;;17.58;6.72;;;12.30;1.00;;;;;;5076111;28;20425;-24
2022/06/13 02:39:54;;;;;;;13.18;6.43;;;12.30;1.00;;;;;;5074429;28;20048;-24
2022/06/13 02:42:29;;;;;;;17.48;6.68;;;12.30;1.00;;;;;;5074738;28;20044;-24
2022/06/13 02:45:03;;;;;;;19.70;7.18;;;12.30;1.00;;;;;;5074513;28;20048;-23
2022/06/13 02:47:42;;;;;;;21.95;7.38;;;12.30;1.00;;;;;;5075830;28;20048;-24
2022/06/13 02:50:14;;;;;;;16.30;7.00;;;12.30;1.00;;;;;;5074584;28;20048;-24
2022/06/13 02:52:49;;;;;;;13.82;6.65;;;12.30;1.00;;;;;;5074846;28;20495;-24
2022/06/13 02:55:17;;;;;;;25.80;7.38;;;12.30;99.90;;;;;;5074626;28;20083;-24
2022/06/13 02:58:16;;;;;;;18.35;6.70;;;12.20;99.90;;;;;;5057451;28;20044;-24
2022/06/13 03:00:59;;;;;;;12.02;6.38;;;12.30;99.90;;;;;;5073872;28;20119;-24
2022/06/13 03:03:49;;;;;;;13.88;6.47;;;12.20;99.90;;;;;;5075076;28;20127;-24
2022/06/13 03:06:18;;;;;;;17.85;6.13;;;12.30;99.90;;;;;;5072986;28;20055;-24
2022/06/13 03:09:00;;;;;;;18.90;6.85;;;12.30;99.90;;;;;;5075247;28;20157;-24
2022/06/13 03:11:46;;;;;;;17.30;7.10;;;12.30;99.90;;;;;;5074916;28;20052;-23
2022/06/13 03:14:19;;;;;;;18.30;6.70;;;12.20;99.90;;;;;;5075555;28;20401;-24
2022/06/13 03:17:00;;;;;;;;;;;12.20;99.90;;;;;;5074863;28;20490;-24
2022/06/13 03:19:31;;;;;;;14.35;5.90;;;12.10;99.90;;;;;;5075184;28;19920;-24
2022/06/13 03:22:05;;;;;;;25.85;7.97;;;12.00;99.90;;;;;;5074553;28;20103;-24
2022/06/13 03:24:46;;;;;;;10.48;4.82;;;12.00;99.90;;;;;;5074427;28;20048;-24
2022/06/13 03:27:37;;;;;;;12.55;5.63;;;12.00;99.90;;;;;;5073567;28;20048;-24
2022/06/13 03:30:10;;;;;;;21.60;6.28;;;11.90;99.90;;;;;;5075087;28;20394;-23
2022/06/13 03:32:44;;;;;;;21.98;6.30;;;11.90;99.90;;;;;;5075068;28;20048;-24
2022/06/13 03:35:14;;;;;;;12.10;4.50;;;11.90;99.90;;;;;;5073530;28;20394;-23
2022/06/13 03:37:44;;;;;;;13.18;5.10;;;11.90;81.30;;;;;;5074362;28;20131;-24
2022/06/13 03:40:17;;;;;;;10.93;4.20;;;11.90;46.90;;;;;;5073225;28;20045;-24
2022/06/13 03:42:54;;;;;;;;;;;11.90;17.90;;;;;;5074579;28;20087;-24
2022/06/13 03:45:29;;;;;;;13.60;5.00;;;11.80;1.00;;;;;;5074445;28;19974;-24
2022/06/13 03:48:14;;;;;;;12.50;4.43;;;11.80;4.70;;;;;;5073179;28;20398;-24
2022/06/13 03:50:46;;;;;;;16.58;5.30;;;11.80;5.90;;;;;;5074098;28;20044;-24
2022/06/13 03:53:23;;;;;;;15.60;4.90;;;11.80;18.40;;;;;;5073074;28;20049;-23
2022/06/13 03:56:07;;;;;;;17.92;6.20;;;11.80;28.90;;;;;;5072512;28;20055;-24
2022/06/13 03:58:37;;;;;;;18.10;4.97;;;11.90;31.70;;;;;;5074005;28;20135;-23
2022/06/13 04:01:11;;;;;;;19.17;5.60;;;11.90;42.00;;;;;;5074128;28;20497;-24
2022/06/13 04:03:37;;;;;;;16.98;5.75;;;11.90;48.30;;;;;;5074453;28;20044;-24
2022/06/13 04:06:25;;;;;;;15.30;6.65;;;11.90;66.30;;;;;;5073813;28;20048;-24
2022/06/13 04:08:51;;;;;;;15.50;5.70;;;11.90;97.90;;;;;;5073746;28;20052;-24
2022/06/13 04:11:37;;;;;;;16.60;6.07;;;12.00;99.90;;;;;;5073092;28;20127;-24
2022/06/13 04:14:34;;;;;;;12.05;4.60;;;12.00;99.90;;;;;;5062935;28;20075;-24
2022/06/13 04:17:19;;;;;;;14.80;5.68;;;12.10;99.90;;;;;;5072743;28;20063;-24
2022/06/13 04:19:53;;;;;;;11.80;4.85;;;12.20;99.90;;;;;;5074221;28;20049;-24
2022/06/13 04:22:27;;;;;;;18.98;5.43;;;12.10;99.90;;;;;;5072485;28;20143;-24
2022/06/13 04:24:58;;;;;;;18.65;4.50;;;12.10;99.90;;;;;;5056534;28;20383;-24
2022/06/13 04:27:30;;;;;;;11.38;4.25;;;12.10;99.90;;;;;;5074209;28;20423;-24
2022/06/13 04:30:15;;;;;;;14.07;4.93;;;12.10;99.90;;;;;;5072345;28;20052;-24
2022/06/13 04:33:06;;;;;;;13.13;3.47;;;12.10;99.90;;;;;;5073631;28;20131;-24
2022/06/13 04:35:34;;;;;;;12.80;4.60;;;12.20;99.90;;;;;;5073626;28;20048;-24
2022/06/13 04:38:03;;;;;;;11.90;3.80;;;12.20;99.90;;;;;;5072823;28;20071;-24
2022/06/13 04:40:33;;;;;;;8.43;2.92;;;12.40;99.90;;;;;;5073001;28;20045;-24
2022/06/13 04:43:00;;;;;;;13.98;3.72;;;12.50;99.90;;;;;;5073466;28;20047;-24
2022/06/13 04:45:47;;;;;;;11.98;3.65;;;12.60;99.90;;;;;;5073712;28;20091;-23
2022/06/13 04:48:15;;;;;;;10.05;3.40;;;12.70;99.90;;;;;;5073497;28;20056;-23
2022/06/13 04:50:50;;;;;;;11.77;2.67;;;12.80;99.90;;;;;;5074247;28;20128;-23
2022/06/13 04:53:22;;;;;;;9.30;3.10;;;12.70;99.90;;;;;;5074289;28;20052;-23
2022/06/13 04:55:50;;;;;;;9.32;2.03;;;12.60;99.90;;;;;;5072725;28;20050;-24
2022/06/13 04:58:31;;;;;;;10.45;2.65;;;12.60;99.90;;;;;;5073337;28;20093;-24
2022/06/13 05:01:02;;;;;;;5.65;2.30;;;12.50;99.90;;;;;;5074152;28;20044;-24
2022/06/13 05:03:31;;;;;;;12.75;2.65;;;12.40;99.90;;;;;;5073217;28;20131;-24
2022/06/13 05:06:03;;;;;;;8.48;2.45;;;12.40;1.00;;;;;;5073807;28;20052;-24
2022/06/13 05:08:34;;;;;;;6.00;1.83;;;12.40;1.00;;;;;;5073178;28;20051;-24
2022/06/13 05:11:22;;;;;;;7.53;1.70;;;12.40;1.00;;;;;;5072908;28;20044;-24
2022/06/13 05:13:52;;;;;;;5.55;2.20;;;12.50;1.00;;;;;;5072060;28;20048;-23
2022/06/13 05:16:42;;;;;;;7.18;1.95;;;12.50;1.00;;;;;;5073207;28;20491;-24
2022/06/13 05:19:50;;;;;;;8.60;2.22;;;12.60;1.00;;;;;;5073169;28;20119;-24
2022/06/13 05:22:37;;;;;;;5.60;1.42;;;13.10;99.90;;;;;;5051230;28;20136;-24
2022/06/13 05:25:05;;;;;;;1.88;1.10;;;14.00;99.90;;;;;;5073735;28;20417;-24
2022/06/13 05:27:32;;;;;;;2.58;0.88;;;14.70;99.90;;;;;;5072776;28;20498;-24
2022/06/13 05:29:58;;;;;;;2.80;1.10;;;15.00;99.90;;;;;;5057894;28;20083;-24
2022/06/13 05:32:24;;;;;;;4.47;1.20;;;15.00;54.20;;;;;;5076816;28;20052;-24
2022/06/13 05:34:51;;;;;;;5.50;0.90;;;14.70;58.80;;;;;;5077013;28;20461;-24
2022/06/13 05:37:17;;;;;;;4.53;1.10;;;14.20;88.70;;;;;;5059534;28;20429;-24
2022/06/13 05:39:45;;;;;;;5.00;1.30;;;13.70;99.90;;;;;;5076607;28;20460;-24
2022/06/13 05:42:14;;;;;;;4.82;0.93;;;13.30;99.90;;;;;;5077252;28;20416;-24
2022/06/13 05:44:43;;;;;;;4.70;1.33;;;13.10;99.90;;;;;;5076516;28;20085;-24
2022/06/13 05:47:17;;;;;;;3.10;0.68;;;12.80;99.90;;;;;;5059417;28;20048;-24
2022/06/13 05:49:43;;;;;;;3.88;1.05;;;12.70;1.00;;;;;;5076776;28;20048;-24
2022/06/13 05:52:10;;;;;;;6.85;1.58;;;12.60;1.00;;;;;;5076353;28;20048;-23
2022/06/13 05:54:36;;;;;;;6.75;1.63;;;12.70;1.00;;;;;;5058440;28;20052;-23
2022/06/13 05:57:03;;;;;;;7.72;1.23;;;12.70;1.00;;;;;;5075307;28;20389;-24
2022/06/13 05:59:28;;;;;;;4.32;1.10;;;12.70;1.00;;;;;;5076266;28;20206;-24
2022/06/13 06:01:54;;;;;;;6.30;1.42;;;12.80;1.00;;;;;;5075808;28;20135;-24
2022/06/13 06:04:20;;;;;;;6.03;1.35;;;12.80;1.00;;;;;;5058379;28;20368;-24
2022/06/13 06:06:46;;;;;;;3.80;1.05;;;13.10;1.00;;;;;;5076097;28;20040;-24
2022/06/13 06:09:14;;;;;;;10.10;1.40;;;13.30;1.00;;;;;;5076117;28;20040;-24
2022/06/13 06:11:40;;;;;;;5.32;1.40;;;13.20;1.00;;;;;;5076856;28;20359;-24
2022/06/13 06:14:06;;;;;;;4.30;1.10;;;13.00;1.00;;;;;;5075985;28;20135;-24
2022/06/13 06:16:33;;;;;;;5.57;1.40;;;12.80;1.00;;;;;;5075940;28;20058;-23
2022/06/13 06:18:59;;;;;;;7.53;1.63;;;12.70;1.00;;;;;;5076679;28;20044;-23
2022/06/13 06:21:25;;;;;;;7.55;1.42;;;12.70;1.00;;;;;;5075458;28;20062;-24
2022/06/13 06:23:51;;;;;;;9.43;1.40;;;12.80;92.40;;;;;;5075481;28;20094;-24
2022/06/13 06:26:22;;;;;;;10.07;1.63;;;13.10;99.90;;;;;;5075612;28;20405;-24
2022/06/13 06:28:48;;;;;;;5.50;1.35;;;13.90;82.70;;;;;;5076636;28;20052;-24
2022/06/13 06:31:14;;;;;;;6.00;1.20;;;14.60;1.00;;;;;;5074549;28;20084;-24
2022/06/13 06:33:39;;;;;;;7.10;1.77;;;15.70;99.90;;;;;;5075610;28;20045;-25
2022/06/13 06:36:06;;;;;;;8.75;1.48;;;16.60;99.90;;;;;;5075289;28;20048;-24
2022/06/13 06:38:32;;;;;;;10.73;1.50;;;16.80;1.00;;;;;;5076061;28;20147;-24
2022/06/13 06:40:57;;;;;;;7.75;1.40;;;16.30;2.80;;;;;;5074610;28;20072;-24
2022/06/13 06:43:23;;;;;;;7.60;2.08;;;15.60;96.50;;;;;;5074490;28;20052;-24
2022/06/13 06:45:49;;;;;;;4.80;1.50;;;15.10;99.90;;;;;;5074164;28;20041;-24
2022/06/13 06:48:21;;;;;;;8.63;1.35;;;14.70;99.90;;;;;;5075834;28;20048;-24
2022/06/13 06:50:49;;;;;;;10.13;1.60;;;14.50;99.90;;;;;;5075882;28;20045;-24
2022/06/13 06:53:20;;;;;;;5.95;1.70;;;14.40;99.90;;;;;;5075195;28;20127;-24
2022/06/13 07:01:18;;;;;;;20.15;1.50;;;15.60;6.70;;;;;;5075004;28;20493;-24
2022/06/13 07:03:45;;;;;;;8.23;1.45;;;15.90;1.00;;;;;;5075005;28;20047;-24
2022/06/13 07:06:13;;;;;;;5.82;1.17;;;16.50;1.00;;;;;;5073797;28;20408;-24
2022/06/13 07:08:39;;;;;;;6.60;1.08;;;17.10;1.00;;;;;;5057179;28;20505;-24
2022/06/13 07:14:06;;;;;;;6.93;1.90;;;17.70;99.90;;;;;;5074851;28;20055;-25
2022/06/13 07:16:32;;;;;;;5.20;0.90;;;17.00;99.90;;;;;;5074758;28;20056;-24
2022/06/13 07:19:02;;;;;;;7.35;1.17;;;16.00;99.90;;;;;;5041397;28;20056;-23
2022/06/13 07:21:28;;;;;;;8.15;1.10;;;15.10;1.00;;;;;;5075324;28;20071;-23
2022/06/13 07:23:53;;;;;;;7.32;1.33;;;14.50;7.50;;;;;;5074574;28;20390;-23
2022/06/13 07:26:19;;;;;;;7.68;1.33;;;14.20;99.90;;;;;;5074627;28;20052;-23
2022/06/13 07:28:45;;;;;;;7.13;1.48;;;14.10;99.90;;;;;;5074509;28;20106;-23
2022/06/13 07:31:18;;;;;;;10.05;2.38;;;13.90;99.90;;;;;;5074466;28;20051;-23
2022/06/13 07:33:45;;;;;;;;;;;13.80;99.90;;;;;;5075462;28;20390;-23
2022/06/13 07:36:10;;;;;;;10.68;1.63;;;14.50;99.90;;;;;;5074421;28;20382;-24
2022/06/13 07:38:36;;;;;;;6.15;1.30;;;15.80;99.90;;;;;;5074361;28;20074;-24
2022/06/13 07:41:02;;;;;;;4.93;1.02;;;16.60;1.00;;;;;;5073113;28;20478;-24
2022/06/13 07:43:32;;;;;;;7.57;1.20;;;16.80;99.90;;;;;;5073294;28;20056;-24
2022/06/13 07:46:02;;;;;;;5.85;1.10;;;16.30;99.90;;;;;;5073237;28;20120;-24
2022/06/13 07:48:28;;;;;;;8.63;1.00;;;15.90;99.90;;;;;;5074448;28;20044;-23
2022/06/13 07:50:55;;;;;;;4.85;0.82;;;16.40;99.90;;;;;;5074139;28;20056;-24
2022/06/13 07:53:23;;;;;;;6.65;1.00;;;16.60;99.90;;;;;;5074036;28;20095;-24
2022/06/13 07:55:52;;;;;;;5.38;0.90;;;16.20;99.90;;;;;;5074104;28;20128;-24
2022/06/13 07:58:34;;;;;;;6.10;0.70;;;16.00;99.90;;;;;;5072539;28;20611;-24
2022/06/13 08:01:00;;;;;;;9.77;1.17;;;16.20;99.90;;;;;;5073629;28;20565;-24
2022/06/13 08:03:29;;;;;;;3.63;1.02;;;15.60;99.90;;;;;;5074488;28;20131;-24
2022/06/13 08:05:56;;;;;;;9.65;1.10;;;16.10;99.90;;;;;;5073886;28;20040;-24
2022/06/13 08:08:22;;;;;;;6.28;0.82;;;16.90;99.90;;;;;;5074452;28;20084;-24
2022/06/13 08:10:49;;;;;;;7.60;1.13;;;17.30;58.30;;;;;;5073809;28;20131;-24
2022/06/13 08:13:19;;;;;;;8.82;1.10;;;17.70;39.90;;;;;;5073883;28;20088;-24
2022/06/13 08:15:48;;;;;;;5.13;0.80;;;17.80;1.00;;;;;;5074603;28;20044;-24
2022/06/13 08:18:15;;;;;;;5.90;0.98;;;17.80;1.00;;;;;;5073748;28;20097;-24
2022/06/13 08:20:42;;;;;;;7.00;0.98;;;17.60;65.80;;;;;;5072453;28;20051;-24
2022/06/13 08:23:10;;;;;;;7.03;0.95;;;17.80;99.90;;;;;;5074572;28;20127;-24
2022/06/13 08:25:36;;;;;;;6.60;1.08;;;18.10;90.10;;;;;;5073711;28;20057;-24
2022/06/13 08:28:04;;;;;;;4.93;1.05;;;17.20;1.00;;;;;;5074483;28;20437;-24
2022/06/13 08:30:46;;;;;;;9.95;1.48;;;16.00;97.10;;;;;;5073458;28;20059;-24
2022/06/13 08:33:13;;;;;;;8.18;1.35;;;16.00;99.90;;;;;;5074498;28;20109;-24
2022/06/13 08:35:39;;;;;;;8.73;1.30;;;16.80;99.90;;;;;;5072427;28;20466;-24
2022/06/13 08:38:05;;;;;;;6.95;1.13;;;17.20;1.00;;;;;;5074047;28;20083;-24
2022/06/13 08:40:50;;;;;;;7.00;0.88;;;17.20;1.00;;;;;;5073482;28;20037;-25
2022/06/13 08:43:40;;;;;;;7.18;1.20;;;17.20;99.90;;;;;;5072936;28;20459;-24
2022/06/13 08:46:22;;;;;;;7.22;0.90;;;17.50;99.90;;;;;;5073575;28;20063;-24
2022/06/13 08:48:58;;;;;;;9.73;1.35;;;18.00;1.00;;;;;;5074098;28;20059;-24
2022/06/13 08:51:45;;;;;;;6.07;1.00;;;18.30;1.00;;;;;;5064529;28;20040;-24
2022/06/13 08:54:17;;;;;;;4.55;1.08;;;18.00;1.00;;;;;;5039370;28;20056;-25
2022/06/13 08:56:43;;;;;;;9.07;2.07;;;17.80;1.00;;;;;;5062894;28;20463;-24
2022/06/13 08:59:24;;;;;;;7.70;1.27;;;17.70;1.00;;;;;;5053505;28;20044;-24
2022/06/13 09:02:08;;;;;;;9.15;1.40;;;18.00;1.00;;;;;;5053539;28;20143;-24
2022/06/13 09:04:41;;;;;;;9.65;1.63;;;18.40;1.00;;;;;;5055562;28;20060;-25
2022/06/13 09:07:32;;;;;;;;;;;18.70;99.90;;;;;;5075457;28;20123;-25
2022/06/13 09:10:06;;;;;;;7.40;1.77;;;17.70;1.00;;;;;;5077237;28;20332;-24
2022/06/13 09:12:42;;;;;;;7.95;1.45;;;16.70;1.00;;;;;;5076911;28;20081;-24
2022/06/13 09:15:16;;;;;;;8.38;1.17;;;16.50;12.30;;;;;;5077130;28;20102;-24
2022/06/13 09:17:50;;;;;;;11.30;1.85;;;17.00;3.80;;;;;;5059500;28;20080;-24
2022/06/13 09:20:33;;;;;;;8.63;1.40;;;17.80;1.00;;;;;;5076923;28;20055;-24
2022/06/13 09:23:08;;;;;;;;;;;17.80;1.00;;;;;;5078134;28;20067;-24
2022/06/13 09:25:43;;;;;;;9.48;1.20;;;16.90;1.00;;;;;;5077508;28;19979;-24
2022/06/13 09:28:20;;;;;;;6.07;1.15;;;16.50;1.00;;;;;;5075649;28;20041;-24
2022/06/13 09:31:02;;;;;;;7.95;1.25;;;17.00;1.00;;;;;;5075698;28;20048;-24
2022/06/13 09:33:37;;;;;;;12.50;3.00;;;17.70;1.00;;;;;;5076814;28;20087;-24
2022/06/13 09:36:26;;;;;;;7.53;1.50;;;17.60;1.00;;;;;;5077022;28;20106;-24
2022/06/13 09:39:03;;;;;;;11.77;1.83;;;16.80;1.00;;;;;;5073038;28;20384;-24
2022/06/13 09:41:52;;;;;;;10.88;1.35;;;16.60;11.00;;;;;;5075709;28;20555;-24
2022/06/13 09:44:40;;;;;;;11.52;2.17;;;17.40;1.00;;;;;;5077141;28;20059;-25
2022/06/13 09:47:33;;;;;;;8.00;1.15;;;17.20;1.00;;;;;;5077362;28;20450;-24
2022/06/13 09:50:07;;;;;;;9.93;1.55;;;16.80;1.00;;;;;;5058538;28;20048;-24
2022/06/13 09:52:54;;;;;;;14.85;1.98;;;17.50;38.80;;;;;;5059300;28;20407;-24
2022/06/13 09:55:41;;;;;;;8.98;1.40;;;18.00;1.00;;;;;;5077244;28;20044;-24
2022/06/13 09:58:16;;;;;;;11.55;1.83;;;17.60;1.00;;;;;;5076373;28;20135;-24
2022/06/13 10:00:42;;;;;;;5.75;1.00;;;16.70;1.00;;;;;;5076245;28;20471;-24
2022/06/13 10:03:30;;;;;;;7.72;1.80;;;16.80;1.00;;;;;;5075936;28;20059;-24
2022/06/13 10:06:04;;;;;;;8.77;1.48;;;17.30;1.00;;;;;;5077051;28;20049;-24
2022/06/13 10:09:06;;;;;;;7.80;1.33;;;17.00;1.00;;;;;;5075972;28;20044;-24
2022/06/13 10:11:54;;;;;;;12.88;1.83;;;16.40;1.00;;;;;;5076114;28;20048;-24
2022/06/13 10:14:55;;;;;;;7.90;1.58;;;16.10;37.40;;;;;;5075383;28;20091;-24
2022/06/13 10:17:49;;;;;;;8.45;1.65;;;16.80;32.00;;;;;;5074516;28;20139;-24
2022/06/13 10:20:29;;;;;;;8.57;1.35;;;17.40;1.00;;;;;;5074637;28;20048;-24
2022/06/13 10:23:17;;;;;;;8.73;1.30;;;16.90;1.00;;;;;;5073988;28;20510;-24
2022/06/13 10:26:10;;;;;;;7.43;1.65;;;16.80;1.00;;;;;;5075812;28;20091;-24
2022/06/13 10:29:00;;;;;;;7.38;1.73;;;17.00;1.00;;;;;;5074545;28;20494;-24
2022/06/13 10:31:32;;;;;;;13.55;1.60;;;16.90;1.00;;;;;;5075717;28;20049;-24
2022/06/13 10:34:14;;;;;;;12.20;2.17;;;17.50;77.30;;;;;;5076175;28;20045;-24
2022/06/13 10:36:49;;;;;;;9.32;1.75;;;17.80;1.00;;;;;;5075614;28;20044;-25
2022/06/13 10:39:18;;;;;;;12.82;2.05;;;17.30;1.00;;;;;;5075448;28;20052;-24
2022/06/13 10:41:48;;;;;;;9.70;1.83;;;16.70;1.00;;;;;;5075455;28;20106;-24
2022/06/13 10:44:17;;;;;;;14.98;1.90;;;16.60;1.00;;;;;;5075997;28;20040;-24
2022/06/13 10:46:45;;;;;;;9.23;1.85;;;16.60;1.00;;;;;;5075875;28;20090;-24
2022/06/13 10:49:31;;;;;;;7.95;1.40;;;17.10;16.20;;;;;;5058852;28;20059;-25
2022/06/13 10:52:16;;;;;;;13.10;2.20;;;17.50;1.00;;;;;;5075399;28;20045;-25
2022/06/13 10:54:53;;;;;;;11.02;2.20;;;16.90;1.00;;;;;;5075802;28;20045;-24
2022/06/13 10:57:31;;;;;;;10.63;1.60;;;16.40;20.90;;;;;;5075256;28;20105;-24
2022/06/13 11:00:21;;;;;;;11.80;2.15;;;16.20;22.30;;;;;;5074612;28;20114;-24
2022/06/13 11:02:47;;;;;;;9.15;2.33;;;16.80;91.50;;;;;;5075145;28;20105;-25
2022/06/13 11:05:20;;;;;;;10.13;1.98;;;16.70;30.00;;;;;;5075021;28;20127;-24
2022/06/13 11:07:49;;;;;;;9.50;2.15;;;17.00;47.20;;;;;;5075015;28;20071;-24
2022/06/13 11:10:31;;;;;;;5.90;1.60;;;17.70;1.00;;;;;;5074898;28;20141;-25
2022/06/13 11:12:58;;;;;;;8.65;1.33;;;18.30;99.90;;;;;;5074925;28;20402;-25
2022/06/13 11:24:07;;;;;;;9.80;1.65;;;16.90;12.80;;;;;;5075530;28;20095;-24
2022/06/13 11:29:24;;;;;;;8.82;1.30;;;17.90;1.00;;;;;;5075075;28;20048;-25
2022/06/13 11:31:56;;;;;;;6.68;1.60;;;17.90;1.00;;;;;;5074477;28;20033;-24
2022/06/13 11:34:27;;;;;;;8.10;1.90;;;17.50;1.00;;;;;;5075093;28;20052;-24
2022/06/13 11:37:04;;;;;;;10.98;2.47;;;17.10;1.00;;;;;;5074936;28;20084;-24
2022/06/13 11:39:33;;;;;;;8.75;1.88;;;16.90;11.30;;;;;;5073682;28;20510;-24
2022/06/13 11:42:00;;;;;;;12.35;2.35;;;17.40;1.00;;;;;;5073945;28;20494;-25
2022/06/13 11:44:26;;;;;;;7.93;1.33;;;18.10;1.00;;;;;;5074258;28;20425;-24
2022/06/13 11:47:04;;;;;;;8.13;1.33;;;17.90;1.00;;;;;;5074245;28;20051;-24
2022/06/13 11:49:35;;;;;;;6.63;1.55;;;17.30;1.00;;;;;;5074134;28;20052;-25
2022/06/13 11:52:05;;;;;;;8.93;1.65;;;16.90;1.00;;;;;;5073819;28;20045;-24
2022/06/13 11:54:36;;;;;;;13.55;1.98;;;17.70;20.50;;;;;;5074085;28;20048;-25
2022/06/13 11:57:14;;;;;;;8.40;1.50;;;17.60;1.00;;;;;;5056825;28;20056;-25
2022/06/13 11:59:52;;;;;;;11.38;1.50;;;17.30;1.00;;;;;;5072864;28;20475;-24
2022/06/13 12:02:43;;;;;;;13.32;2.20;;;17.00;1.00;;;;;;5073569;28;20148;-24
2022/06/13 12:05:19;;;;;;;7.93;1.92;;;16.70;33.30;;;;;;5074528;28;20052;-24
2022/06/13 12:08:01;;;;;;;9.20;1.42;;;16.60;77.50;;;;;;5074729;28;20056;-24
2022/06/13 12:10:31;;;;;;;9.25;1.65;;;17.30;99.70;;;;;;5074230;28;20055;-25
2022/06/13 12:12:57;;;;;;;8.82;1.38;;;17.20;1.00;;;;;;5072836;28;20505;-24
2022/06/13 12:15:36;;;;;;;7.28;1.52;;;16.70;1.00;;;;;;5074594;28;20063;-24
2022/06/13 12:18:22;;;;;;;8.45;1.27;;;16.50;9.90;;;;;;5073829;28;20044;-24
2022/06/13 12:20:59;;;;;;;10.10;2.00;;;16.30;77.70;;;;;;5074323;28;20051;-24
2022/06/13 12:23:31;;;;;;;6.88;1.52;;;16.50;18.90;;;;;;5072431;28;20059;-24
2022/06/13 12:26:13;;;;;;;5.78;1.20;;;16.50;48.40;;;;;;5073444;28;20084;-24
2022/06/13 12:29:15;;;;;;;6.43;1.17;;;16.40;1.00;;;;;;5073704;28;20051;-24
2022/06/13 12:31:57;;;;;;;6.57;1.35;;;16.40;23.20;;;;;;5074170;28;20378;-24
2022/06/13 12:34:25;;;;;;;6.15;1.10;;;16.50;48.60;;;;;;5074478;28;20052;-24
2022/06/13 12:37:10;;;;;;;5.85;1.23;;;16.70;11.80;;;;;;5074175;28;20044;-24
2022/06/13 12:39:44;;;;;;;7.03;1.75;;;17.00;95.70;;;;;;5072892;28;20048;-24
2022/06/13 12:42:31;;;;;;;9.25;1.60;;;17.70;72.20;;;;;;5072323;28;20041;-25
2022/06/13 12:45:29;;;;;;;5.80;0.73;;;17.50;1.00;;;;;;5073614;28;20087;-24
2022/06/13 12:48:10;;;;;;;7.50;1.25;;;17.10;1.00;;;;;;5073490;28;20044;-24
2022/06/13 12:50:57;;;;;;;7.55;0.82;;;16.90;49.20;;;;;;5073818;28;20044;-24
2022/06/13 12:53:49;;;;;;;5.38;0.93;;;16.90;1.00;;;;;;5072819;28;20045;-24
2022/06/13 12:56:48;;;;;;;5.22;0.88;;;16.50;1.00;;;;;;5071078;28;20060;-24
2022/06/13 12:59:35;;;;;;;11.07;2.40;;;16.30;60.50;;;;;;5063524;28;20048;-25
2022/06/13 13:02:26;;;;;;;6.30;1.27;;;16.40;69.20;;;;;;5067154;28;20102;-24
2022/06/13 13:05:04;;;;;;;6.22;0.98;;;16.60;66.90;;;;;;5054716;28;20102;-24
2022/06/13 13:07:49;;;;;;;6.07;1.27;;;16.90;1.00;;;;;;5051798;28;20131;-25
2022/06/13 13:10:21;;;;;;;4.43;0.80;;;17.50;8.40;;;;;;5053133;28;20051;-24
2022/06/13 13:13:06;;;;;;;2.83;0.60;;;17.50;1.00;;;;;;5053287;28;20052;-24
2022/06/13 13:15:47;;;;;;;3.88;0.52;;;17.40;99.90;;;;;;5053201;28;20057;-24
2022/06/13 13:18:22;;;;;;;9.55;1.75;;;17.40;99.90;;;;;;5053515;28;20091;-24
2022/06/13 13:20:52;;;;;;;3.50;0.80;;;17.20;1.00;;;;;;5053945;28;20049;-24
2022/06/13 13:23:38;;;;;;;2.33;0.55;;;17.10;1.00;;;;;;5053105;28;20057;-25
2022/06/13 13:26:37;;;;;;;6.55;1.40;;;17.50;99.90;;;;;;5051986;28;20053;-24
2022/06/13 13:29:37;;;;;;;5.38;0.55;;;17.40;1.00;;;;;;5053132;28;20045;-24
2022/06/13 13:32:12;;;;;;;3.92;0.70;;;17.10;1.00;;;;;;5039157;28;20487;-25
2022/06/13 13:35:03;;;;;;;3.35;0.70;;;16.60;1.00;;;;;;5053640;28;20053;-24
2022/06/13 13:37:45;;;;;;;7.07;1.00;;;16.50;1.00;;;;;;5053032;28;20049;-24
2022/06/13 13:40:25;;;;;;;4.05;0.88;;;16.50;1.00;;;;;;5053792;28;20052;-25
2022/06/13 13:43:18;;;;;;;7.32;1.13;;;16.90;1.00;;;;;;5053538;28;20041;-24
2022/06/13 13:45:57;;;;;;;3.70;0.90;;;17.30;1.00;;;;;;5053543;28;20056;-25
2022/06/13 13:48:50;;;;;;;3.03;0.70;;;17.40;1.00;;;;;;5053234;28;20049;-25
2022/06/13 13:51:22;;;;;;;;;;;17.20;1.00;;;;;;5056393;28;20045;-24
2022/06/13 13:54:22;;;;;;;6.03;0.90;;;16.90;1.00;;;;;;5056406;28;19924;-25